Apgar, Montana
Current Conditions -  °F | °C
As of 11:55 PM on Friday 24 Oct 2014 (Local Time) from KGPI Reporting Station
Overcast Overcast  
Wind Chill: 42°   Ceiling: 8500
Heat Index: 42°   Visibility: 10mi
Dew Point: 40°   Wind: 0mph
Humidity: 92%   Direction: NA
Pressure: 30.05"   Gusts: NA
Location:  48.5033°N, 113.981°W
Report Text: KGPI 250555Z 00000KT 10SM SCT049 OVC085 06/04 A3005 RMK AO2 SLP185 T00560044 10100 20044 58006
Loading
Personal Weather Stations






























Interactive Weather Map
Tropical Storm Tracking
New forecast layout! Learn more

10-Day Weather Forecast

Advertisements
Track Severe Weather on mobile